sensor_id;sensor_type;location;lat;lon;timestamp;P1;durP1;ratioP1;P2;durP2;ratioP2
42700;SDS011;28316;49.504;8.526;2022-12-07T00:01:22;6.68;;;2.35;;
42700;SDS011;28316;49.504;8.526;2022-12-07T00:03:54;4.45;;;2.55;;
42700;SDS011;28316;49.504;8.526;2022-12-07T00:06:25;5.95;;;3.25;;
42700;SDS011;28316;49.504;8.526;2022-12-07T00:08:51;8.88;;;3.28;;
42700;SDS011;28316;49.504;8.526;2022-12-07T00:11:19;12.57;;;2.97;;
42700;SDS011;28316;49.504;8.526;2022-12-07T00:13:47;10.02;;;3.75;;
42700;SDS011;28316;49.504;8.526;2022-12-07T00:16:22;7.28;;;2.67;;
42700;SDS011;28316;49.504;8.526;2022-12-07T00:18:51;6.07;;;3.25;;
42700;SDS011;28316;49.504;8.526;2022-12-07T00:21:24;7.22;;;3.38;;
42700;SDS011;28316;49.504;8.526;2022-12-07T00:23:53;6.05;;;2.90;;
42700;SDS011;28316;49.504;8.526;2022-12-07T00:26:24;4.35;;;2.90;;
42700;SDS011;28316;49.504;8.526;2022-12-07T00:28:52;7.85;;;2.85;;
42700;SDS011;28316;49.504;8.526;2022-12-07T00:31:24;4.35;;;2.78;;
42700;SDS011;28316;49.504;8.526;2022-12-07T00:33:51;7.80;;;2.50;;
42700;SDS011;28316;49.504;8.526;2022-12-07T00:36:19;9.93;;;3.97;;
42700;SDS011;28316;49.504;8.526;2022-12-07T00:38:47;7.93;;;3.45;;
42700;SDS011;28316;49.504;8.526;2022-12-07T00:41:14;10.15;;;3.25;;
42700;SDS011;28316;49.504;8.526;2022-12-07T00:43:45;6.13;;;3.00;;
42700;SDS011;28316;49.504;8.526;2022-12-07T00:46:13;5.15;;;2.90;;
42700;SDS011;28316;49.504;8.526;2022-12-07T00:48:40;11.77;;;3.03;;
42700;SDS011;28316;49.504;8.526;2022-12-07T00:51:06;8.00;;;3.00;;
42700;SDS011;28316;49.504;8.526;2022-12-07T00:53:34;5.20;;;2.78;;
42700;SDS011;28316;49.504;8.526;2022-12-07T00:56:43;7.20;;;3.20;;
42700;SDS011;28316;49.504;8.526;2022-12-07T00:58:56;9.02;;;3.25;;
42700;SDS011;28316;49.504;8.526;2022-12-07T01:01:25;4.38;;;2.88;;
42700;SDS011;28316;49.504;8.526;2022-12-07T01:03:53;4.93;;;2.50;;
42700;SDS011;28316;49.504;8.526;2022-12-07T01:06:20;5.88;;;3.10;;
42700;SDS011;28316;49.504;8.526;2022-12-07T01:08:47;3.85;;;2.15;;
42700;SDS011;28316;49.504;8.526;2022-12-07T01:11:14;4.53;;;2.42;;
42700;SDS011;28316;49.504;8.526;2022-12-07T01:13:43;4.43;;;2.58;;
42700;SDS011;28316;49.504;8.526;2022-12-07T01:16:11;13.88;;;3.47;;
42700;SDS011;28316;49.504;8.526;2022-12-07T01:18:40;10.02;;;3.97;;
42700;SDS011;28316;49.504;8.526;2022-12-07T01:21:07;8.38;;;3.45;;
42700;SDS011;28316;49.504;8.526;2022-12-07T01:23:37;6.13;;;3.30;;
42700;SDS011;28316;49.504;8.526;2022-12-07T01:26:05;6.53;;;3.33;;
42700;SDS011;28316;49.504;8.526;2022-12-07T01:28:35;8.52;;;3.42;;
42700;SDS011;28316;49.504;8.526;2022-12-07T01:31:05;3.65;;;2.80;;
42700;SDS011;28316;49.504;8.526;2022-12-07T01:33:46;8.02;;;2.83;;
42700;SDS011;28316;49.504;8.526;2022-12-07T01:38:48;15.20;;;4.40;;
42700;SDS011;28316;49.504;8.526;2022-12-07T01:41:17;5.03;;;3.10;;
42700;SDS011;28316;49.504;8.526;2022-12-07T01:54:51;4.72;;;2.55;;
42700;SDS011;28316;49.504;8.526;2022-12-07T01:57:22;8.25;;;4.15;;
42700;SDS011;28316;49.504;8.526;2022-12-07T01:59:49;7.53;;;2.80;;
42700;SDS011;28316;49.504;8.526;2022-12-07T02:02:25;5.82;;;2.80;;
42700;SDS011;28316;49.504;8.526;2022-12-07T02:04:57;7.70;;;3.60;;
42700;SDS011;28316;49.504;8.526;2022-12-07T02:07:26;7.50;;;2.63;;
42700;SDS011;28316;49.504;8.526;2022-12-07T02:09:54;4.43;;;2.55;;
42700;SDS011;28316;49.504;8.526;2022-12-07T02:12:20;7.35;;;3.15;;
42700;SDS011;28316;49.504;8.526;2022-12-07T02:14:47;12.40;;;2.95;;
42700;SDS011;28316;49.504;8.526;2022-12-07T02:28:51;8.73;;;3.75;;
42700;SDS011;28316;49.504;8.526;2022-12-07T02:31:37;8.63;;;3.38;;
42700;SDS011;28316;49.504;8.526;2022-12-07T02:37:10;9.15;;;2.67;;
42700;SDS011;28316;49.504;8.526;2022-12-07T02:40:29;4.70;;;3.17;;
42700;SDS011;28316;49.504;8.526;2022-12-07T02:43:09;6.47;;;3.47;;
42700;SDS011;28316;49.504;8.526;2022-12-07T02:45:42;4.88;;;1.98;;
42700;SDS011;28316;49.504;8.526;2022-12-07T02:48:11;11.77;;;4.75;;
42700;SDS011;28316;49.504;8.526;2022-12-07T02:50:50;7.10;;;3.10;;
42700;SDS011;28316;49.504;8.526;2022-12-07T02:56:13;5.05;;;3.33;;
42700;SDS011;28316;49.504;8.526;2022-12-07T03:05:13;15.32;;;3.85;;
42700;SDS011;28316;49.504;8.526;2022-12-07T03:11:19;7.30;;;3.33;;
42700;SDS011;28316;49.504;8.526;2022-12-07T03:14:23;5.65;;;3.45;;
42700;SDS011;28316;49.504;8.526;2022-12-07T03:16:57;7.85;;;2.95;;
42700;SDS011;28316;49.504;8.526;2022-12-07T03:19:32;10.10;;;3.63;;
42700;SDS011;28316;49.504;8.526;2022-12-07T03:22:01;19.05;;;3.20;;
42700;SDS011;28316;49.504;8.526;2022-12-07T03:24:37;13.40;;;3.60;;
42700;SDS011;28316;49.504;8.526;2022-12-07T03:27:20;7.43;;;2.47;;
42700;SDS011;28316;49.504;8.526;2022-12-07T03:29:52;14.60;;;2.72;;
42700;SDS011;28316;49.504;8.526;2022-12-07T03:32:28;3.35;;;2.22;;
42700;SDS011;28316;49.504;8.526;2022-12-07T03:35:07;12.05;;;4.35;;
42700;SDS011;28316;49.504;8.526;2022-12-07T03:43:02;2.85;;;1.63;;
42700;SDS011;28316;49.504;8.526;2022-12-07T03:45:42;7.13;;;2.72;;
42700;SDS011;28316;49.504;8.526;2022-12-07T03:51:21;5.65;;;2.13;;
42700;SDS011;28316;49.504;8.526;2022-12-07T03:54:15;9.68;;;2.80;;
42700;SDS011;28316;49.504;8.526;2022-12-07T03:57:16;5.78;;;2.33;;
42700;SDS011;28316;49.504;8.526;2022-12-07T03:59:43;7.30;;;3.92;;
42700;SDS011;28316;49.504;8.526;2022-12-07T04:02:11;5.75;;;3.40;;
42700;SDS011;28316;49.504;8.526;2022-12-07T04:04:39;11.25;;;2.60;;
42700;SDS011;28316;49.504;8.526;2022-12-07T04:07:06;6.32;;;2.75;;
42700;SDS011;28316;49.504;8.526;2022-12-07T04:09:32;4.68;;;2.70;;
42700;SDS011;28316;49.504;8.526;2022-12-07T04:11:57;7.25;;;3.28;;
42700;SDS011;28316;49.504;8.526;2022-12-07T04:14:23;5.47;;;3.33;;
42700;SDS011;28316;49.504;8.526;2022-12-07T04:19:17;4.15;;;2.42;;
42700;SDS011;28316;49.504;8.526;2022-12-07T04:21:45;5.43;;;2.80;;
42700;SDS011;28316;49.504;8.526;2022-12-07T04:24:13;6.88;;;2.67;;
42700;SDS011;28316;49.504;8.526;2022-12-07T04:26:40;6.35;;;2.58;;
42700;SDS011;28316;49.504;8.526;2022-12-07T04:29:07;5.03;;;3.47;;
42700;SDS011;28316;49.504;8.526;2022-12-07T04:31:34;6.40;;;3.15;;
42700;SDS011;28316;49.504;8.526;2022-12-07T04:34:00;6.45;;;2.92;;
42700;SDS011;28316;49.504;8.526;2022-12-07T04:36:26;2.85;;;2.33;;
42700;SDS011;28316;49.504;8.526;2022-12-07T04:38:53;9.80;;;2.92;;
42700;SDS011;28316;49.504;8.526;2022-12-07T04:41:20;5.45;;;3.03;;
42700;SDS011;28316;49.504;8.526;2022-12-07T04:43:52;6.45;;;2.97;;
42700;SDS011;28316;49.504;8.526;2022-12-07T04:46:23;7.20;;;3.58;;
42700;SDS011;28316;49.504;8.526;2022-12-07T04:48:50;6.20;;;2.00;;
42700;SDS011;28316;49.504;8.526;2022-12-07T04:51:21;6.47;;;2.83;;
42700;SDS011;28316;49.504;8.526;2022-12-07T04:53:50;4.55;;;3.08;;
42700;SDS011;28316;49.504;8.526;2022-12-07T04:56:16;4.95;;;2.83;;
42700;SDS011;28316;49.504;8.526;2022-12-07T04:58:43;6.07;;;3.00;;
42700;SDS011;28316;49.504;8.526;2022-12-07T05:01:10;5.72;;;3.13;;
42700;SDS011;28316;49.504;8.526;2022-12-07T05:03:37;4.57;;;2.30;;
42700;SDS011;28316;49.504;8.526;2022-12-07T05:06:04;4.63;;;2.17;;
42700;SDS011;28316;49.504;8.526;2022-12-07T05:08:31;8.30;;;2.85;;
42700;SDS011;28316;49.504;8.526;2022-12-07T05:10:59;6.50;;;2.78;;
42700;SDS011;28316;49.504;8.526;2022-12-07T05:13:25;5.47;;;3.10;;
42700;SDS011;28316;49.504;8.526;2022-12-07T05:15:51;4.55;;;2.55;;
42700;SDS011;28316;49.504;8.526;2022-12-07T05:18:16;7.57;;;2.85;;
42700;SDS011;28316;49.504;8.526;2022-12-07T05:20:43;5.45;;;2.83;;
42700;SDS011;28316;49.504;8.526;2022-12-07T05:23:09;5.25;;;2.05;;
42700;SDS011;28316;49.504;8.526;2022-12-07T05:25:36;5.32;;;2.25;;
42700;SDS011;28316;49.504;8.526;2022-12-07T05:28:02;6.50;;;2.97;;
42700;SDS011;28316;49.504;8.526;2022-12-07T05:30:30;4.95;;;3.45;;
42700;SDS011;28316;49.504;8.526;2022-12-07T05:32:57;5.20;;;2.88;;
42700;SDS011;28316;49.504;8.526;2022-12-07T05:35:23;7.20;;;3.53;;
42700;SDS011;28316;49.504;8.526;2022-12-07T05:37:49;9.30;;;2.83;;
42700;SDS011;28316;49.504;8.526;2022-12-07T05:40:15;7.53;;;2.75;;
42700;SDS011;28316;49.504;8.526;2022-12-07T05:42:41;5.00;;;2.67;;
42700;SDS011;28316;49.504;8.526;2022-12-07T05:45:07;8.23;;;3.78;;
42700;SDS011;28316;49.504;8.526;2022-12-07T05:47:34;5.78;;;2.72;;
42700;SDS011;28316;49.504;8.526;2022-12-07T05:50:01;3.97;;;2.45;;
42700;SDS011;28316;49.504;8.526;2022-12-07T05:52:28;7.13;;;2.25;;
42700;SDS011;28316;49.504;8.526;2022-12-07T05:54:53;5.78;;;3.83;;
42700;SDS011;28316;49.504;8.526;2022-12-07T05:57:19;6.57;;;3.50;;
42700;SDS011;28316;49.504;8.526;2022-12-07T05:59:45;6.05;;;2.67;;
42700;SDS011;28316;49.504;8.526;2022-12-07T06:02:11;3.95;;;2.10;;
42700;SDS011;28316;49.504;8.526;2022-12-07T06:04:41;7.15;;;3.60;;
42700;SDS011;28316;49.504;8.526;2022-12-07T06:07:09;5.03;;;3.05;;
42700;SDS011;28316;49.504;8.526;2022-12-07T06:09:37;6.13;;;3.20;;
42700;SDS011;28316;49.504;8.526;2022-12-07T06:12:03;6.90;;;3.55;;
42700;SDS011;28316;49.504;8.526;2022-12-07T06:14:48;4.85;;;2.30;;
42700;SDS011;28316;49.504;8.526;2022-12-07T06:17:14;9.93;;;3.58;;
42700;SDS011;28316;49.504;8.526;2022-12-07T06:19:41;7.00;;;3.08;;
42700;SDS011;28316;49.504;8.526;2022-12-07T06:22:07;8.52;;;3.20;;
42700;SDS011;28316;49.504;8.526;2022-12-07T06:24:34;7.50;;;4.78;;
42700;SDS011;28316;49.504;8.526;2022-12-07T06:27:00;4.55;;;2.95;;
42700;SDS011;28316;49.504;8.526;2022-12-07T06:29:26;9.30;;;4.22;;
42700;SDS011;28316;49.504;8.526;2022-12-07T06:31:52;5.35;;;3.28;;
42700;SDS011;28316;49.504;8.526;2022-12-07T06:34:18;7.97;;;3.92;;
42700;SDS011;28316;49.504;8.526;2022-12-07T06:36:47;7.43;;;3.08;;
42700;SDS011;28316;49.504;8.526;2022-12-07T06:39:17;8.52;;;3.45;;
42700;SDS011;28316;49.504;8.526;2022-12-07T06:41:44;5.07;;;2.85;;
42700;SDS011;28316;49.504;8.526;2022-12-07T06:44:10;5.90;;;3.13;;
42700;SDS011;28316;49.504;8.526;2022-12-07T06:46:35;5.95;;;3.17;;
42700;SDS011;28316;49.504;8.526;2022-12-07T06:49:01;7.00;;;3.10;;
42700;SDS011;28316;49.504;8.526;2022-12-07T06:51:29;10.88;;;3.22;;
42700;SDS011;28316;49.504;8.526;2022-12-07T06:53:55;8.00;;;3.70;;
42700;SDS011;28316;49.504;8.526;2022-12-07T06:56:21;7.82;;;3.10;;
42700;SDS011;28316;49.504;8.526;2022-12-07T06:58:47;7.30;;;4.20;;
42700;SDS011;28316;49.504;8.526;2022-12-07T07:01:14;8.45;;;3.42;;
42700;SDS011;28316;49.504;8.526;2022-12-07T07:03:42;6.78;;;3.55;;
42700;SDS011;28316;49.504;8.526;2022-12-07T07:06:09;11.73;;;3.97;;
42700;SDS011;28316;49.504;8.526;2022-12-07T07:08:36;12.77;;;4.90;;
42700;SDS011;28316;49.504;8.526;2022-12-07T07:11:03;8.07;;;3.33;;
42700;SDS011;28316;49.504;8.526;2022-12-07T07:13:30;6.55;;;3.65;;
42700;SDS011;28316;49.504;8.526;2022-12-07T07:15:56;7.68;;;3.58;;
42700;SDS011;28316;49.504;8.526;2022-12-07T07:18:22;5.18;;;3.42;;
42700;SDS011;28316;49.504;8.526;2022-12-07T07:20:47;8.20;;;4.32;;
42700;SDS011;28316;49.504;8.526;2022-12-07T07:23:15;9.50;;;4.00;;
42700;SDS011;28316;49.504;8.526;2022-12-07T07:25:41;8.60;;;3.85;;
42700;SDS011;28316;49.504;8.526;2022-12-07T07:28:07;8.85;;;4.50;;
42700;SDS011;28316;49.504;8.526;2022-12-07T07:30:32;6.25;;;3.15;;
42700;SDS011;28316;49.504;8.526;2022-12-07T07:32:59;8.32;;;3.25;;
42700;SDS011;28316;49.504;8.526;2022-12-07T07:35:27;15.27;;;3.40;;
42700;SDS011;28316;49.504;8.526;2022-12-07T07:37:54;7.72;;;4.28;;
42700;SDS011;28316;49.504;8.526;2022-12-07T07:40:20;6.93;;;3.45;;
42700;SDS011;28316;49.504;8.526;2022-12-07T07:42:47;7.03;;;3.60;;
42700;SDS011;28316;49.504;8.526;2022-12-07T07:45:14;5.93;;;3.60;;
42700;SDS011;28316;49.504;8.526;2022-12-07T07:47:40;7.72;;;4.03;;
42700;SDS011;28316;49.504;8.526;2022-12-07T07:50:06;11.23;;;4.90;;
42700;SDS011;28316;49.504;8.526;2022-12-07T07:52:32;6.90;;;3.42;;
42700;SDS011;28316;49.504;8.526;2022-12-07T07:54:57;7.47;;;4.18;;
42700;SDS011;28316;49.504;8.526;2022-12-07T07:57:23;6.90;;;3.80;;
42700;SDS011;28316;49.504;8.526;2022-12-07T07:59:49;9.60;;;4.95;;
42700;SDS011;28316;49.504;8.526;2022-12-07T08:02:15;12.98;;;3.15;;
42700;SDS011;28316;49.504;8.526;2022-12-07T08:04:43;9.10;;;4.45;;
42700;SDS011;28316;49.504;8.526;2022-12-07T08:07:10;7.40;;;3.55;;
42700;SDS011;28316;49.504;8.526;2022-12-07T08:09:37;4.82;;;2.78;;
42700;SDS011;28316;49.504;8.526;2022-12-07T08:12:03;19.08;;;3.40;;
42700;SDS011;28316;49.504;8.526;2022-12-07T08:14:29;12.63;;;3.15;;
42700;SDS011;28316;49.504;8.526;2022-12-07T08:16:55;7.45;;;4.47;;
42700;SDS011;28316;49.504;8.526;2022-12-07T08:19:24;6.53;;;3.42;;
42700;SDS011;28316;49.504;8.526;2022-12-07T08:21:49;7.43;;;4.05;;
42700;SDS011;28316;49.504;8.526;2022-12-07T08:24:15;6.90;;;3.30;;
42700;SDS011;28316;49.504;8.526;2022-12-07T08:26:41;8.18;;;2.95;;
42700;SDS011;28316;49.504;8.526;2022-12-07T08:29:07;5.18;;;3.00;;
42700;SDS011;28316;49.504;8.526;2022-12-07T08:31:33;8.15;;;3.92;;
42700;SDS011;28316;49.504;8.526;2022-12-07T08:33:59;4.93;;;3.08;;
42700;SDS011;28316;49.504;8.526;2022-12-07T08:36:25;9.73;;;4.35;;
42700;SDS011;28316;49.504;8.526;2022-12-07T08:38:51;5.13;;;3.15;;
42700;SDS011;28316;49.504;8.526;2022-12-07T08:41:17;9.65;;;4.65;;
42700;SDS011;28316;49.504;8.526;2022-12-07T08:43:43;8.60;;;3.03;;
42700;SDS011;28316;49.504;8.526;2022-12-07T08:46:10;8.95;;;4.60;;
42700;SDS011;28316;49.504;8.526;2022-12-07T08:49:19;7.82;;;3.03;;
42700;SDS011;28316;49.504;8.526;2022-12-07T08:51:51;9.85;;;4.85;;
42700;SDS011;28316;49.504;8.526;2022-12-07T08:54:17;9.00;;;4.07;;
42700;SDS011;28316;49.504;8.526;2022-12-07T08:56:44;11.15;;;4.93;;
42700;SDS011;28316;49.504;8.526;2022-12-07T08:59:13;8.75;;;4.47;;
42700;SDS011;28316;49.504;8.526;2022-12-07T09:01:42;6.05;;;3.55;;
42700;SDS011;28316;49.504;8.526;2022-12-07T09:04:08;10.80;;;4.55;;
42700;SDS011;28316;49.504;8.526;2022-12-07T09:06:34;13.73;;;4.43;;
42700;SDS011;28316;49.504;8.526;2022-12-07T09:09:00;8.98;;;3.53;;
42700;SDS011;28316;49.504;8.526;2022-12-07T09:11:27;6.43;;;3.70;;
42700;SDS011;28316;49.504;8.526;2022-12-07T09:13:53;9.27;;;4.32;;
42700;SDS011;28316;49.504;8.526;2022-12-07T09:16:19;7.78;;;3.40;;
42700;SDS011;28316;49.504;8.526;2022-12-07T09:18:44;12.40;;;4.57;;
42700;SDS011;28316;49.504;8.526;2022-12-07T09:21:10;6.88;;;4.35;;
42700;SDS011;28316;49.504;8.526;2022-12-07T09:23:36;8.63;;;5.57;;
42700;SDS011;28316;49.504;8.526;2022-12-07T09:26:02;6.40;;;4.30;;
42700;SDS011;28316;49.504;8.526;2022-12-07T09:28:32;6.15;;;3.20;;
42700;SDS011;28316;49.504;8.526;2022-12-07T09:30:59;24.17;;;5.63;;
42700;SDS011;28316;49.504;8.526;2022-12-07T09:33:27;16.27;;;3.97;;
42700;SDS011;28316;49.504;8.526;2022-12-07T09:35:53;8.50;;;4.22;;
42700;SDS011;28316;49.504;8.526;2022-12-07T09:38:19;21.75;;;5.38;;
42700;SDS011;28316;49.504;8.526;2022-12-07T09:40:45;6.97;;;3.28;;
42700;SDS011;28316;49.504;8.526;2022-12-07T09:43:13;9.15;;;3.22;;
42700;SDS011;28316;49.504;8.526;2022-12-07T09:45:45;8.18;;;2.92;;
42700;SDS011;28316;49.504;8.526;2022-12-07T09:48:25;9.07;;;4.55;;
42700;SDS011;28316;49.504;8.526;2022-12-07T09:50:57;5.78;;;3.17;;
42700;SDS011;28316;49.504;8.526;2022-12-07T09:53:36;6.80;;;3.55;;
42700;SDS011;28316;49.504;8.526;2022-12-07T09:56:03;11.45;;;4.30;;
42700;SDS011;28316;49.504;8.526;2022-12-07T09:58:32;17.85;;;4.60;;
42700;SDS011;28316;49.504;8.526;2022-12-07T10:01:09;4.28;;;2.72;;
42700;SDS011;28316;49.504;8.526;2022-12-07T10:03:42;7.53;;;4.38;;
42700;SDS011;28316;49.504;8.526;2022-12-07T10:06:23;10.15;;;4.38;;
42700;SDS011;28316;49.504;8.526;2022-12-07T10:08:49;5.60;;;3.35;;
42700;SDS011;28316;49.504;8.526;2022-12-07T10:11:15;9.13;;;3.95;;
42700;SDS011;28316;49.504;8.526;2022-12-07T10:13:45;14.98;;;4.00;;
42700;SDS011;28316;49.504;8.526;2022-12-07T10:16:35;10.15;;;5.70;;
42700;SDS011;28316;49.504;8.526;2022-12-07T10:24:39;8.07;;;3.97;;
42700;SDS011;28316;49.504;8.526;2022-12-07T10:30:07;7.45;;;3.42;;
42700;SDS011;28316;49.504;8.526;2022-12-07T10:32:39;5.72;;;3.42;;
42700;SDS011;28316;49.504;8.526;2022-12-07T10:35:18;6.28;;;3.47;;
42700;SDS011;28316;49.504;8.526;2022-12-07T10:37:53;4.97;;;3.20;;
42700;SDS011;28316;49.504;8.526;2022-12-07T10:48:26;9.40;;;2.85;;
42700;SDS011;28316;49.504;8.526;2022-12-07T10:51:27;6.68;;;3.22;;
42700;SDS011;28316;49.504;8.526;2022-12-07T11:00:55;8.05;;;3.72;;
42700;SDS011;28316;49.504;8.526;2022-12-07T11:06:46;5.80;;;3.25;;
42700;SDS011;28316;49.504;8.526;2022-12-07T11:21:28;5.70;;;2.53;;
42700;SDS011;28316;49.504;8.526;2022-12-07T11:30:19;6.05;;;2.63;;
42700;SDS011;28316;49.504;8.526;2022-12-07T11:35:53;8.95;;;3.80;;
42700;SDS011;28316;49.504;8.526;2022-12-07T11:38:37;6.50;;;2.63;;
42700;SDS011;28316;49.504;8.526;2022-12-07T11:41:16;7.60;;;2.30;;
42700;SDS011;28316;49.504;8.526;2022-12-07T11:43:54;4.97;;;2.53;;
42700;SDS011;28316;49.504;8.526;2022-12-07T11:46:29;4.50;;;2.25;;
42700;SDS011;28316;49.504;8.526;2022-12-07T11:49:19;5.80;;;2.97;;
42700;SDS011;28316;49.504;8.526;2022-12-07T11:51:56;5.30;;;3.15;;
42700;SDS011;28316;49.504;8.526;2022-12-07T11:54:32;5.13;;;2.43;;
42700;SDS011;28316;49.504;8.526;2022-12-07T11:57:07;10.35;;;2.42;;
42700;SDS011;28316;49.504;8.526;2022-12-07T11:59:49;6.18;;;2.15;;
42700;SDS011;28316;49.504;8.526;2022-12-07T12:02:20;4.95;;;3.17;;
42700;SDS011;28316;49.504;8.526;2022-12-07T12:05:12;3.70;;;2.00;;
42700;SDS011;28316;49.504;8.526;2022-12-07T12:07:43;5.57;;;2.13;;
42700;SDS011;28316;49.504;8.526;2022-12-07T12:10:16;5.28;;;1.98;;
42700;SDS011;28316;49.504;8.526;2022-12-07T12:13:19;5.07;;;2.10;;
42700;SDS011;28316;49.504;8.526;2022-12-07T12:22:45;5.90;;;1.45;;
42700;SDS011;28316;49.504;8.526;2022-12-07T12:25:28;2.05;;;1.10;;
42700;SDS011;28316;49.504;8.526;2022-12-07T12:28:01;4.38;;;2.50;;
42700;SDS011;28316;49.504;8.526;2022-12-07T12:30:37;7.97;;;2.45;;
42700;SDS011;28316;49.504;8.526;2022-12-07T12:51:52;7.38;;;1.83;;
42700;SDS011;28316;49.504;8.526;2022-12-07T13:02:27;4.90;;;2.10;;
42700;SDS011;28316;49.504;8.526;2022-12-07T13:05:03;3.83;;;2.08;;
42700;SDS011;28316;49.504;8.526;2022-12-07T13:23:38;2.83;;;1.50;;
42700;SDS011;28316;49.504;8.526;2022-12-07T13:26:21;5.43;;;1.60;;
42700;SDS011;28316;49.504;8.526;2022-12-07T13:34:53;2.45;;;1.10;;
42700;SDS011;28316;49.504;8.526;2022-12-07T13:39:47;1.63;;;0.93;;
42700;SDS011;28316;49.504;8.526;2022-12-07T13:42:19;3.72;;;1.30;;
42700;SDS011;28316;49.504;8.526;2022-12-07T13:44:55;1.85;;;1.25;;
42700;SDS011;28316;49.504;8.526;2022-12-07T13:47:36;3.33;;;1.02;;
42700;SDS011;28316;49.504;8.526;2022-12-07T13:50:24;5.20;;;1.33;;
42700;SDS011;28316;49.504;8.526;2022-12-07T13:52:59;3.75;;;1.30;;
42700;SDS011;28316;49.504;8.526;2022-12-07T13:55:26;4.43;;;1.63;;
42700;SDS011;28316;49.504;8.526;2022-12-07T13:57:54;5.30;;;1.23;;
42700;SDS011;28316;49.504;8.526;2022-12-07T14:00:21;2.00;;;1.13;;
42700;SDS011;28316;49.504;8.526;2022-12-07T14:05:38;2.13;;;1.05;;
42700;SDS011;28316;49.504;8.526;2022-12-07T14:08:21;3.45;;;1.63;;
42700;SDS011;28316;49.504;8.526;2022-12-07T14:13:32;2.55;;;1.30;;
42700;SDS011;28316;49.504;8.526;2022-12-07T14:18:54;2.45;;;0.82;;
42700;SDS011;28316;49.504;8.526;2022-12-07T14:21:25;2.70;;;1.25;;
42700;SDS011;28316;49.504;8.526;2022-12-07T14:24:11;11.80;;;1.48;;
42700;SDS011;28316;49.504;8.526;2022-12-07T14:26:40;3.22;;;1.73;;
42700;SDS011;28316;49.504;8.526;2022-12-07T14:31:51;4.07;;;1.85;;
42700;SDS011;28316;49.504;8.526;2022-12-07T14:34:19;11.57;;;1.50;;
42700;SDS011;28316;49.504;8.526;2022-12-07T14:36:46;6.60;;;1.80;;
42700;SDS011;28316;49.504;8.526;2022-12-07T14:39:12;4.28;;;2.15;;
42700;SDS011;28316;49.504;8.526;2022-12-07T14:41:38;3.88;;;1.58;;
42700;SDS011;28316;49.504;8.526;2022-12-07T14:44:15;2.25;;;1.05;;
42700;SDS011;28316;49.504;8.526;2022-12-07T14:46:46;2.50;;;1.52;;
42700;SDS011;28316;49.504;8.526;2022-12-07T14:49:13;3.50;;;1.13;;
42700;SDS011;28316;49.504;8.526;2022-12-07T14:51:39;1.48;;;1.02;;
42700;SDS011;28316;49.504;8.526;2022-12-07T14:54:06;1.98;;;1.13;;
42700;SDS011;28316;49.504;8.526;2022-12-07T14:56:41;3.28;;;0.82;;
42700;SDS011;28316;49.504;8.526;2022-12-07T14:59:09;2.88;;;1.13;;
42700;SDS011;28316;49.504;8.526;2022-12-07T15:01:36;3.28;;;1.38;;
42700;SDS011;28316;49.504;8.526;2022-12-07T15:04:02;2.38;;;1.27;;
42700;SDS011;28316;49.504;8.526;2022-12-07T15:06:28;4.15;;;1.52;;
42700;SDS011;28316;49.504;8.526;2022-12-07T15:08:53;4.90;;;2.05;;
42700;SDS011;28316;49.504;8.526;2022-12-07T15:11:20;1.73;;;1.13;;
42700;SDS011;28316;49.504;8.526;2022-12-07T15:13:46;10.05;;;1.67;;
42700;SDS011;28316;49.504;8.526;2022-12-07T15:16:30;8.68;;;1.42;;
42700;SDS011;28316;49.504;8.526;2022-12-07T15:18:56;8.35;;;1.35;;
42700;SDS011;28316;49.504;8.526;2022-12-07T15:21:22;2.45;;;1.38;;
42700;SDS011;28316;49.504;8.526;2022-12-07T15:23:48;8.00;;;1.73;;
42700;SDS011;28316;49.504;8.526;2022-12-07T15:26:14;9.88;;;1.67;;
42700;SDS011;28316;49.504;8.526;2022-12-07T15:28:40;6.10;;;1.95;;
42700;SDS011;28316;49.504;8.526;2022-12-07T15:31:13;6.03;;;1.30;;
42700;SDS011;28316;49.504;8.526;2022-12-07T15:33:40;2.58;;;1.50;;
42700;SDS011;28316;49.504;8.526;2022-12-07T15:36:06;3.95;;;1.42;;
42700;SDS011;28316;49.504;8.526;2022-12-07T15:38:32;2.45;;;1.23;;
42700;SDS011;28316;49.504;8.526;2022-12-07T15:40:58;4.85;;;1.55;;
42700;SDS011;28316;49.504;8.526;2022-12-07T15:43:24;1.77;;;1.35;;
42700;SDS011;28316;49.504;8.526;2022-12-07T15:46:08;2.20;;;1.33;;
42700;SDS011;28316;49.504;8.526;2022-12-07T15:48:34;4.07;;;1.30;;
42700;SDS011;28316;49.504;8.526;2022-12-07T15:51:06;3.10;;;1.77;;
42700;SDS011;28316;49.504;8.526;2022-12-07T15:53:34;2.88;;;1.90;;
42700;SDS011;28316;49.504;8.526;2022-12-07T15:56:00;2.28;;;1.27;;
42700;SDS011;28316;49.504;8.526;2022-12-07T15:58:26;4.65;;;2.30;;
42700;SDS011;28316;49.504;8.526;2022-12-07T16:00:52;10.88;;;1.38;;
42700;SDS011;28316;49.504;8.526;2022-12-07T16:03:18;6.40;;;1.85;;
42700;SDS011;28316;49.504;8.526;2022-12-07T16:05:53;3.63;;;1.30;;
42700;SDS011;28316;49.504;8.526;2022-12-07T16:08:18;2.33;;;1.50;;
42700;SDS011;28316;49.504;8.526;2022-12-07T16:10:44;4.78;;;1.58;;
42700;SDS011;28316;49.504;8.526;2022-12-07T16:13:10;2.38;;;1.50;;
42700;SDS011;28316;49.504;8.526;2022-12-07T16:15:39;16.13;;;3.03;;
42700;SDS011;28316;49.504;8.526;2022-12-07T16:18:06;2.47;;;1.02;;
42700;SDS011;28316;49.504;8.526;2022-12-07T16:20:32;5.03;;;1.83;;
42700;SDS011;28316;49.504;8.526;2022-12-07T16:22:58;3.70;;;1.88;;
42700;SDS011;28316;49.504;8.526;2022-12-07T16:25:24;5.05;;;2.35;;
42700;SDS011;28316;49.504;8.526;2022-12-07T16:27:52;2.42;;;1.20;;
42700;SDS011;28316;49.504;8.526;2022-12-07T16:30:18;7.78;;;1.58;;
42700;SDS011;28316;49.504;8.526;2022-12-07T16:32:44;3.42;;;2.03;;
42700;SDS011;28316;49.504;8.526;2022-12-07T16:35:10;2.45;;;1.48;;
42700;SDS011;28316;49.504;8.526;2022-12-07T16:37:37;2.60;;;1.55;;
42700;SDS011;28316;49.504;8.526;2022-12-07T16:40:03;5.05;;;2.78;;
42700;SDS011;28316;49.504;8.526;2022-12-07T16:42:33;2.72;;;1.50;;
42700;SDS011;28316;49.504;8.526;2022-12-07T16:45:02;4.43;;;2.70;;
42700;SDS011;28316;49.504;8.526;2022-12-07T16:47:31;4.00;;;1.85;;
42700;SDS011;28316;49.504;8.526;2022-12-07T16:49:57;4.15;;;1.70;;
42700;SDS011;28316;49.504;8.526;2022-12-07T16:52:23;3.58;;;1.20;;
42700;SDS011;28316;49.504;8.526;2022-12-07T16:54:48;8.23;;;1.55;;
42700;SDS011;28316;49.504;8.526;2022-12-07T16:57:15;5.07;;;2.42;;
42700;SDS011;28316;49.504;8.526;2022-12-07T16:59:42;11.57;;;1.63;;
42700;SDS011;28316;49.504;8.526;2022-12-07T17:02:09;3.33;;;2.13;;
42700;SDS011;28316;49.504;8.526;2022-12-07T17:04:36;4.07;;;1.92;;
42700;SDS011;28316;49.504;8.526;2022-12-07T17:07:05;9.38;;;2.72;;
42700;SDS011;28316;49.504;8.526;2022-12-07T17:09:31;2.42;;;1.80;;
42700;SDS011;28316;49.504;8.526;2022-12-07T17:11:57;6.72;;;2.40;;
42700;SDS011;28316;49.504;8.526;2022-12-07T17:14:22;3.22;;;1.95;;
42700;SDS011;28316;49.504;8.526;2022-12-07T17:17:07;3.80;;;1.90;;
42700;SDS011;28316;49.504;8.526;2022-12-07T17:19:32;2.55;;;1.27;;
42700;SDS011;28316;49.504;8.526;2022-12-07T17:21:58;4.68;;;2.33;;
42700;SDS011;28316;49.504;8.526;2022-12-07T17:24:24;4.65;;;2.35;;
42700;SDS011;28316;49.504;8.526;2022-12-07T17:26:50;4.25;;;2.22;;
42700;SDS011;28316;49.504;8.526;2022-12-07T17:29:16;15.32;;;2.40;;
42700;SDS011;28316;49.504;8.526;2022-12-07T17:31:43;11.93;;;2.45;;
42700;SDS011;28316;49.504;8.526;2022-12-07T17:34:11;4.90;;;2.35;;
42700;SDS011;28316;49.504;8.526;2022-12-07T17:36:39;9.05;;;2.63;;
42700;SDS011;28316;49.504;8.526;2022-12-07T17:39:08;4.47;;;1.92;;
42700;SDS011;28316;49.504;8.526;2022-12-07T17:41:36;4.65;;;2.38;;
42700;SDS011;28316;49.504;8.526;2022-12-07T17:44:21;20.17;;;2.30;;
42700;SDS011;28316;49.504;8.526;2022-12-07T17:46:49;5.43;;;2.10;;
42700;SDS011;28316;49.504;8.526;2022-12-07T17:49:22;5.90;;;2.75;;
42700;SDS011;28316;49.504;8.526;2022-12-07T17:51:49;8.48;;;3.00;;